createdAt,value
2019-01-24T00:02:05.702Z,21.03
2019-01-24T00:04:36.601Z,21.17
2019-01-24T00:07:07.356Z,19.92
2019-01-24T00:09:37.986Z,19.63
2019-01-24T00:12:08.794Z,18.63
2019-01-24T00:14:39.763Z,21.20
2019-01-24T00:17:10.395Z,20.10
2019-01-24T00:19:41.135Z,21.97
2019-01-24T00:22:12.113Z,21.83
2019-01-24T00:24:42.986Z,17.47
2019-01-24T00:27:13.611Z,18.70
2019-01-24T00:29:44.557Z,17.60
2019-01-24T00:32:15.573Z,19.37
2019-01-24T00:34:46.266Z,18.47
2019-01-24T00:37:17.200Z,17.03
2019-01-24T00:39:47.810Z,16.63
2019-01-24T00:42:18.616Z,16.50
2019-01-24T00:44:49.309Z,16.73
2019-01-24T00:47:19.866Z,17.03
2019-01-24T00:49:50.395Z,16.33
2019-01-24T00:52:21.049Z,17.13
2019-01-24T00:54:51.667Z,15.43
2019-01-24T00:57:22.208Z,15.63
2019-01-24T00:59:52.855Z,15.63
2019-01-24T01:02:23.525Z,17.00
2019-01-24T01:04:54.127Z,15.43
2019-01-24T01:07:24.792Z,15.63
2019-01-24T01:09:55.430Z,15.73
2019-01-24T01:12:26.999Z,15.83
2019-01-24T01:14:57.968Z,15.37
2019-01-24T01:17:28.609Z,16.83
2019-01-24T01:19:59.138Z,16.20
2019-01-24T01:22:29.790Z,16.80
2019-01-24T01:25:00.391Z,17.50
2019-01-24T01:27:31.017Z,17.13
2019-01-24T01:30:01.956Z,17.07
2019-01-24T01:32:32.651Z,16.60
2019-01-24T01:35:03.305Z,16.30
2019-01-24T01:37:34.254Z,15.83
2019-01-24T01:40:07.350Z,16.33
2019-01-24T01:42:38.304Z,16.10
2019-01-24T01:45:14.491Z,15.90
2019-01-24T01:47:45.400Z,16.80
2019-01-24T01:50:21.706Z,16.57
2019-01-24T01:52:52.360Z,16.40
2019-01-24T01:55:23.115Z,16.20
2019-01-24T01:57:53.759Z,17.03
2019-01-24T02:00:25.509Z,15.97
2019-01-24T02:02:56.157Z,15.57
2019-01-24T02:05:26.770Z,16.13
2019-01-24T02:07:57.385Z,17.03
2019-01-24T02:10:27.992Z,16.57
2019-01-24T02:12:58.962Z,17.70
2019-01-24T02:15:30.177Z,17.87
2019-01-24T02:18:01.399Z,17.62
2019-01-24T02:20:32.650Z,17.10
2019-01-24T02:23:05.042Z,16.63
2019-01-24T02:25:35.846Z,16.53
2019-01-24T02:28:06.616Z,15.27
2019-01-24T02:30:37.835Z,16.27
2019-01-24T02:33:09.112Z,15.68
2019-01-24T02:35:40.627Z,16.67
2019-01-24T02:38:11.795Z,16.47
2019-01-24T02:40:43.075Z,16.00
2019-01-24T02:43:14.156Z,15.90
2019-01-24T02:45:44.852Z,15.83
2019-01-24T02:48:16.665Z,16.20
2019-01-24T02:50:47.527Z,16.07
2019-01-24T02:53:18.684Z,16.02
2019-01-24T02:55:49.819Z,17.33
2019-01-24T02:58:22.711Z,16.13
2019-01-24T03:00:53.991Z,17.97
2019-01-24T03:03:24.851Z,17.30
2019-01-24T03:05:55.753Z,16.85
2019-01-24T03:08:26.868Z,17.37
2019-01-24T03:10:57.750Z,17.20
2019-01-24T03:13:29.879Z,16.27
2019-01-24T03:16:01.053Z,18.03
2019-01-24T03:18:33.229Z,16.57
2019-01-24T03:21:03.935Z,16.63
2019-01-24T03:23:34.598Z,17.17
2019-01-24T03:26:09.317Z,17.40
2019-01-24T03:28:40.832Z,18.23
2019-01-24T03:31:11.904Z,16.63
2019-01-24T03:33:43.185Z,18.00
2019-01-24T03:36:15.231Z,17.58
2019-01-24T03:38:46.956Z,16.70
2019-01-24T03:41:18.575Z,18.43
2019-01-24T03:43:50.067Z,18.30
2019-01-24T03:46:21.742Z,17.95
2019-01-24T03:48:53.086Z,17.57
2019-01-24T03:51:24.012Z,17.70
2019-01-24T03:53:55.802Z,17.83
2019-01-24T03:56:28.010Z,17.87
2019-01-24T03:58:58.976Z,17.37
2019-01-24T04:01:29.993Z,18.02
2019-01-24T04:04:01.249Z,17.10
2019-01-24T04:06:32.548Z,17.47
2019-01-24T04:09:05.335Z,18.13
2019-01-24T04:11:36.589Z,18.00
2019-01-24T04:14:07.607Z,17.10
2019-01-24T04:16:38.959Z,19.50
2019-01-24T04:19:09.648Z,18.30
2019-01-24T04:21:40.313Z,18.70
2019-01-24T04:24:10.986Z,19.33
2019-01-24T04:26:42.527Z,18.63
2019-01-24T04:29:13.467Z,18.43
2019-01-24T04:31:44.459Z,18.00
2019-01-24T04:34:15.435Z,17.97
2019-01-24T04:36:49.515Z,19.27
2019-01-24T04:39:21.443Z,18.25
2019-01-24T04:41:52.396Z,18.73
2019-01-24T04:44:23.376Z,18.30
2019-01-24T04:46:54.390Z,16.87
2019-01-24T04:49:25.735Z,18.05
2019-01-24T04:51:57.705Z,18.55
2019-01-24T04:54:28.737Z,18.52
2019-01-24T04:56:59.386Z,18.53
2019-01-24T04:59:30.007Z,19.10
2019-01-24T05:02:00.647Z,18.70
2019-01-24T05:04:31.271Z,19.53
2019-01-24T05:07:02.206Z,18.10
2019-01-24T05:09:33.203Z,20.27
2019-01-24T05:12:04.332Z,17.93
2019-01-24T05:14:35.331Z,17.63
2019-01-24T05:17:06.406Z,18.53
2019-01-24T05:19:37.808Z,18.60
2019-01-24T05:22:08.714Z,17.43
2019-01-24T05:24:40.082Z,18.47
2019-01-24T05:27:11.072Z,18.53
2019-01-24T05:29:42.368Z,18.83
2019-01-24T05:32:13.815Z,19.85
2019-01-24T05:34:47.159Z,19.62
2019-01-24T05:37:17.944Z,18.63
2019-01-24T05:39:49.071Z,18.60
2019-01-24T05:42:21.090Z,19.63
2019-01-24T05:44:52.688Z,18.50
2019-01-24T05:47:24.399Z,18.87
2019-01-24T05:49:55.417Z,19.07
2019-01-24T05:52:27.146Z,19.33
2019-01-24T05:54:58.215Z,19.27
2019-01-24T05:57:30.634Z,19.64
2019-01-24T06:00:09.427Z,19.83
2019-01-24T06:02:44.502Z,18.92
2019-01-24T06:05:15.923Z,19.80
2019-01-24T06:07:49.447Z,18.67
2019-01-24T06:10:20.409Z,18.47
2019-01-24T06:12:52.599Z,19.67
2019-01-24T06:15:23.328Z,18.87
2019-01-24T06:17:54.274Z,20.40
2019-01-24T06:20:25.547Z,19.87
2019-01-24T06:22:57.935Z,20.02
2019-01-24T06:25:28.675Z,21.25
2019-01-24T06:27:59.713Z,19.87
2019-01-24T06:30:30.646Z,19.55
2019-01-24T06:33:01.227Z,20.87
2019-01-24T06:35:32.129Z,18.75
2019-01-24T06:38:02.741Z,20.10
2019-01-24T06:40:33.577Z,20.07
2019-01-24T06:43:04.183Z,20.83
2019-01-24T06:45:35.095Z,20.25
2019-01-24T06:48:05.943Z,20.63
2019-01-24T06:50:37.329Z,19.60
2019-01-24T06:53:13.069Z,19.50
2019-01-24T06:55:44.028Z,19.95
2019-01-24T06:58:15.264Z,20.70
2019-01-24T07:00:46.253Z,18.40
2019-01-24T07:03:17.206Z,17.60
2019-01-24T07:05:47.844Z,18.87
2019-01-24T07:08:18.742Z,18.23
2019-01-24T07:10:49.456Z,17.57
2019-01-24T07:13:20.218Z,19.10
2019-01-24T07:15:51.223Z,18.50
2019-01-24T07:18:22.181Z,17.98
2019-01-24T07:20:53.076Z,19.90
2019-01-24T07:23:24.327Z,18.37
2019-01-24T07:25:55.277Z,18.40
2019-01-24T07:28:25.939Z,17.57
2019-01-24T07:30:56.601Z,18.33
2019-01-24T07:33:27.935Z,18.30
2019-01-24T07:36:02.210Z,16.85
2019-01-24T07:38:35.237Z,16.90
2019-01-24T07:41:06.053Z,17.00
2019-01-24T07:43:37.011Z,16.87
2019-01-24T07:46:08.201Z,17.90
2019-01-24T07:48:38.876Z,16.67
2019-01-24T07:51:09.934Z,16.62
2019-01-24T07:53:40.847Z,16.80
2019-01-24T07:56:11.438Z,17.70
2019-01-24T07:58:41.985Z,17.17
2019-01-24T08:01:12.520Z,16.53
2019-01-24T08:03:43.168Z,16.33
2019-01-24T08:06:13.727Z,16.43
2019-01-24T08:08:44.374Z,15.85
2019-01-24T08:11:14.960Z,16.13
2019-01-24T08:13:46.133Z,14.98
2019-01-24T08:16:17.055Z,15.90
2019-01-24T08:18:48.024Z,15.90
2019-01-24T08:21:18.668Z,13.47
2019-01-24T08:23:49.602Z,16.47
2019-01-24T08:26:20.560Z,15.90
2019-01-24T08:28:52.008Z,15.37
2019-01-24T08:31:22.675Z,15.43
2019-01-24T08:33:53.950Z,14.90
2019-01-24T08:36:25.179Z,16.63
2019-01-24T08:38:55.842Z,16.10
2019-01-24T08:41:26.603Z,15.97
2019-01-24T08:43:58.246Z,15.78
2019-01-24T08:46:28.861Z,14.07
2019-01-24T08:48:59.715Z,15.33
2019-01-24T08:51:30.533Z,15.47
2019-01-24T08:54:01.232Z,13.80
2019-01-24T08:56:32.039Z,14.13
2019-01-24T08:59:03.629Z,15.23
2019-01-24T09:01:34.352Z,14.78
2019-01-24T09:04:05.440Z,15.10
2019-01-24T09:06:36.356Z,14.03
2019-01-24T09:09:10.709Z,14.67
2019-01-24T09:11:41.507Z,14.77
2019-01-24T09:14:12.644Z,15.30
2019-01-24T09:16:43.310Z,16.30
2019-01-24T09:19:13.986Z,15.57
2019-01-24T09:21:44.822Z,14.63
2019-01-24T09:24:15.773Z,15.57
2019-01-24T09:26:46.905Z,16.03
2019-01-24T09:29:17.604Z,16.27
2019-01-24T09:31:48.249Z,16.00
2019-01-24T09:34:19.785Z,15.77
2019-01-24T09:36:50.902Z,15.87
2019-01-24T09:39:21.617Z,16.80
2019-01-24T09:41:52.389Z,14.87
2019-01-24T09:44:23.015Z,15.90
2019-01-24T09:46:53.853Z,15.40
2019-01-24T09:49:25.220Z,17.23
2019-01-24T09:51:56.106Z,16.30
2019-01-24T09:54:27.179Z,16.93
2019-01-24T09:56:57.847Z,15.13
2019-01-24T09:59:28.802Z,16.00
2019-01-24T10:01:59.418Z,16.70
2019-01-24T10:04:30.109Z,16.33
2019-01-24T10:07:00.789Z,15.18
2019-01-24T10:09:31.426Z,16.53
2019-01-24T10:12:02.105Z,16.00
2019-01-24T10:14:32.995Z,16.53
2019-01-24T10:17:03.612Z,17.23
2019-01-24T10:19:34.281Z,15.47
2019-01-24T10:22:06.296Z,16.37
2019-01-24T10:24:36.930Z,15.10
2019-01-24T10:27:07.974Z,16.50
2019-01-24T10:29:38.912Z,17.23
2019-01-24T10:32:09.537Z,16.23
2019-01-24T10:34:40.280Z,16.25
2019-01-24T10:37:11.155Z,16.00
2019-01-24T10:39:42.064Z,15.70
2019-01-24T10:42:12.744Z,16.57
2019-01-24T10:44:43.654Z,16.70
2019-01-24T10:47:14.271Z,16.80
2019-01-24T10:52:38.600Z,19.60
2019-01-24T10:55:01.148Z,17.02
2019-01-24T10:57:32.178Z,16.37
2019-01-24T11:00:02.999Z,16.17
2019-01-24T11:02:34.096Z,16.53
2019-01-24T11:05:05.507Z,16.63
2019-01-24T11:07:36.689Z,16.80
2019-01-24T11:10:08.597Z,15.78
2019-01-24T11:12:39.786Z,16.87
2019-01-24T11:15:15.851Z,15.87
2019-01-24T11:17:47.298Z,16.40
2019-01-24T11:20:19.759Z,16.63
2019-01-24T11:22:51.038Z,16.83
2019-01-24T11:25:23.173Z,16.23
2019-01-24T11:27:54.835Z,15.87
2019-01-24T11:30:28.887Z,17.17
2019-01-24T11:33:00.165Z,17.23
2019-01-24T11:35:33.425Z,16.57
2019-01-24T11:38:04.400Z,16.97
2019-01-24T11:40:35.133Z,17.20
2019-01-24T11:43:06.440Z,17.80
2019-01-24T11:45:43.097Z,17.00
2019-01-24T11:48:14.284Z,17.03
2019-01-24T11:50:45.281Z,18.23
2019-01-24T11:53:16.734Z,16.63
2019-01-24T11:55:47.521Z,17.67
2019-01-24T11:58:18.560Z,15.37
2019-01-24T12:00:54.897Z,17.67
2019-01-24T12:03:26.458Z,16.73
2019-01-24T12:05:57.590Z,17.70
2019-01-24T12:08:28.938Z,18.70
2019-01-24T12:11:00.616Z,17.33
2019-01-24T12:13:31.629Z,18.37
2019-01-24T12:16:04.018Z,17.73
2019-01-24T12:18:34.729Z,17.00
2019-01-24T12:21:05.812Z,16.60
2019-01-24T12:23:37.615Z,16.90
2019-01-24T12:26:09.183Z,17.17
2019-01-24T12:28:40.663Z,16.90
2019-01-24T12:31:11.827Z,17.80
2019-01-24T12:33:43.267Z,16.50
2019-01-24T12:36:14.352Z,16.10
2019-01-24T12:38:45.813Z,18.65
2019-01-24T12:41:17.236Z,18.80
2019-01-24T12:43:48.749Z,18.10
2019-01-24T12:46:20.060Z,17.03
2019-01-24T12:48:51.556Z,18.23
2019-01-24T12:51:22.600Z,17.30
2019-01-24T12:53:53.679Z,17.13
2019-01-24T12:56:24.682Z,19.10
2019-01-24T12:58:55.270Z,18.10
2019-01-24T13:01:26.115Z,19.10
2019-01-24T13:03:57.515Z,20.07
2019-01-24T13:06:28.844Z,16.83
2019-01-24T13:09:00.482Z,16.30
2019-01-24T13:11:32.222Z,19.37
2019-01-24T13:14:03.278Z,17.93
2019-01-24T13:16:34.746Z,17.83
2019-01-24T13:19:05.906Z,17.50
2019-01-24T13:21:36.967Z,19.97
2019-01-24T13:24:08.059Z,18.13
2019-01-24T13:26:39.457Z,18.35
2019-01-24T13:29:10.559Z,17.85
2019-01-24T13:31:41.672Z,18.30
2019-01-24T13:34:12.379Z,19.47
2019-01-24T13:36:43.052Z,18.67
2019-01-24T13:39:13.814Z,18.00
2019-01-24T13:41:44.649Z,18.00
2019-01-24T13:44:15.596Z,18.23
2019-01-24T13:46:46.673Z,18.40
2019-01-24T13:49:17.358Z,19.47
2019-01-24T13:51:48.404Z,19.67
2019-01-24T13:54:19.443Z,19.40
2019-01-24T13:56:50.174Z,19.57
2019-01-24T13:59:20.842Z,18.37
2019-01-24T14:01:51.993Z,18.70
2019-01-24T14:04:41.606Z,18.85
2019-01-24T14:07:13.315Z,19.00
2019-01-24T14:09:44.478Z,19.77
2019-01-24T14:12:16.119Z,19.62
2019-01-24T14:14:47.264Z,17.92
2019-01-24T14:17:18.665Z,20.03
2019-01-24T14:19:50.016Z,20.50
2019-01-24T14:22:21.771Z,19.63
2019-01-24T14:24:53.124Z,19.27
2019-01-24T14:27:24.211Z,18.53
2019-01-24T14:29:55.835Z,18.70
2019-01-24T14:32:26.996Z,18.40
2019-01-24T14:34:58.007Z,18.20
2019-01-24T14:37:28.854Z,18.30
2019-01-24T14:39:59.942Z,18.20
2019-01-24T14:42:30.963Z,17.37
2019-01-24T14:45:01.930Z,16.97
2019-01-24T14:47:32.689Z,17.70
2019-01-24T14:50:03.354Z,17.63
2019-01-24T14:52:34.161Z,17.17
2019-01-24T14:55:05.242Z,16.63
2019-01-24T14:57:36.256Z,16.87
2019-01-24T15:00:16.775Z,17.20
2019-01-24T15:02:47.837Z,17.87
2019-01-24T15:05:19.174Z,17.27
2019-01-24T15:07:50.267Z,16.37
2019-01-24T15:10:21.391Z,14.98
2019-01-24T15:12:52.841Z,15.13
2019-01-24T15:15:24.200Z,17.70
2019-01-24T15:17:55.674Z,16.43
2019-01-24T15:20:26.734Z,16.12
2019-01-24T15:23:00.277Z,15.90
2019-01-24T15:25:31.328Z,16.73
2019-01-24T15:28:02.355Z,16.47
2019-01-24T15:30:33.542Z,16.12
2019-01-24T15:33:04.199Z,17.40
2019-01-24T15:35:35.786Z,17.23
2019-01-24T15:38:06.477Z,18.67
2019-01-24T15:40:37.470Z,18.30
2019-01-24T15:43:08.496Z,20.20
2019-01-24T15:45:39.546Z,18.82
2019-01-24T15:48:10.649Z,18.90
2019-01-24T15:50:41.643Z,17.90
2019-01-24T15:53:13.041Z,17.23
2019-01-24T15:55:44.083Z,18.00
2019-01-24T15:58:15.397Z,18.73
2019-01-24T16:00:46.458Z,18.20
2019-01-24T16:03:17.689Z,17.87
2019-01-24T16:05:49.103Z,19.60
2019-01-24T16:08:20.397Z,19.37
2019-01-24T16:10:51.099Z,17.77
2019-01-24T16:13:21.793Z,19.07
2019-01-24T16:15:52.470Z,18.50
2019-01-24T16:18:23.051Z,17.73
2019-01-24T16:20:54.015Z,18.43
2019-01-24T16:23:25.442Z,18.93
2019-01-24T16:25:57.759Z,18.67
2019-01-24T16:28:28.877Z,18.77
2019-01-24T16:31:00.180Z,18.80
2019-01-24T16:33:31.235Z,17.93
2019-01-24T16:36:02.284Z,20.60
2019-01-24T16:38:33.663Z,18.97
2019-01-24T16:41:04.717Z,19.03
2019-01-24T16:43:35.716Z,18.73
2019-01-24T16:46:06.994Z,18.85
2019-01-24T16:48:38.010Z,19.45
2019-01-24T16:51:09.174Z,19.43
2019-01-24T16:53:40.557Z,19.87
2019-01-24T16:56:11.574Z,20.83
2019-01-24T16:58:42.601Z,19.27
2019-01-24T17:01:21.271Z,20.80
2019-01-24T17:03:52.314Z,19.73
2019-01-24T17:06:23.711Z,21.40
2019-01-24T17:08:56.145Z,19.97
2019-01-24T17:11:27.019Z,19.20
2019-01-24T17:13:58.130Z,20.23
2019-01-24T17:16:29.506Z,19.77
2019-01-24T17:19:00.506Z,21.90
2019-01-24T17:21:31.871Z,19.50
2019-01-24T17:24:03.227Z,20.17
2019-01-24T17:26:34.759Z,19.48
2019-01-24T17:29:06.007Z,20.57
2019-01-24T17:31:37.097Z,21.03
2019-01-24T17:34:08.195Z,20.37
2019-01-24T17:36:39.225Z,20.43
2019-01-24T17:39:12.808Z,19.70
2019-01-24T17:41:43.829Z,18.80
2019-01-24T17:44:15.225Z,19.07
2019-01-24T17:46:46.313Z,19.63
2019-01-24T17:49:17.361Z,19.13
2019-01-24T17:51:48.409Z,19.70
2019-01-24T17:54:20.147Z,20.03
2019-01-24T17:56:50.870Z,20.10
2019-01-24T17:59:21.553Z,20.73
2019-01-24T18:01:52.166Z,20.60
2019-01-24T18:04:22.870Z,22.53
2019-01-24T18:06:53.490Z,21.73
2019-01-24T18:09:24.638Z,23.53
2019-01-24T18:11:55.703Z,22.90
2019-01-24T18:14:26.739Z,24.47
2019-01-24T18:16:57.823Z,24.03
2019-01-24T18:19:29.342Z,28.12
2019-01-24T18:22:00.031Z,24.10
2019-01-24T18:24:31.080Z,26.77
2019-01-24T18:27:02.143Z,40.13
2019-01-24T18:29:33.301Z,32.63
2019-01-24T18:32:04.628Z,32.20
2019-01-24T18:34:35.562Z,34.38
2019-01-24T18:37:06.525Z,44.43
2019-01-24T18:39:37.249Z,41.58
2019-01-24T18:42:08.050Z,38.03
2019-01-24T18:44:39.237Z,41.47
2019-01-24T18:47:10.073Z,28.77
2019-01-24T18:49:41.436Z,33.03
2019-01-24T18:52:12.806Z,35.57
2019-01-24T18:54:44.215Z,26.87
2019-01-24T18:57:16.651Z,22.77
2019-01-24T18:59:47.648Z,23.27
2019-01-24T19:02:18.847Z,24.47
2019-01-24T19:04:50.275Z,22.40
2019-01-24T19:07:21.367Z,23.47
2019-01-24T19:09:52.159Z,24.00
2019-01-24T19:12:22.848Z,22.17
2019-01-24T19:14:53.496Z,23.40
2019-01-24T19:17:24.220Z,24.03
2019-01-24T19:19:55.595Z,21.47
2019-01-24T19:22:26.736Z,23.50
2019-01-24T19:24:57.816Z,23.20
2019-01-24T19:27:28.915Z,22.60
2019-01-24T19:29:59.963Z,21.37
2019-01-24T19:32:31.380Z,21.30
2019-01-24T19:35:02.406Z,21.63
2019-01-24T19:37:33.451Z,22.87
2019-01-24T19:40:05.121Z,23.23
2019-01-24T19:42:36.456Z,24.67
2019-01-24T19:45:12.475Z,21.37
2019-01-24T19:47:43.933Z,21.93
2019-01-24T19:50:21.587Z,20.77
2019-01-24T19:52:52.391Z,21.53
2019-01-24T19:55:23.152Z,21.43
2019-01-24T19:57:54.333Z,21.03
2019-01-24T20:00:34.633Z,20.63
2019-01-24T20:03:06.037Z,21.97
2019-01-24T20:05:37.437Z,21.82
2019-01-24T20:08:08.589Z,21.20
2019-01-24T20:10:39.756Z,19.83
2019-01-24T20:13:10.825Z,19.77
2019-01-24T20:15:42.296Z,20.43
2019-01-24T20:18:13.425Z,20.90
2019-01-24T20:20:44.545Z,21.83
2019-01-24T20:23:17.520Z,21.20
2019-01-24T20:25:48.607Z,18.63
2019-01-24T20:28:19.345Z,20.20
2019-01-24T20:30:50.204Z,21.03
2019-01-24T20:33:21.041Z,21.55
2019-01-24T20:35:58.458Z,21.83
2019-01-24T20:38:29.593Z,19.43
2019-01-24T20:41:00.708Z,20.60
2019-01-24T20:43:35.416Z,20.60
2019-01-24T20:46:03.920Z,19.57
2019-01-24T20:48:34.787Z,19.05
2019-01-24T20:51:05.561Z,19.52
2019-01-24T20:53:36.297Z,19.50
2019-01-24T20:56:07.399Z,20.63
2019-01-24T20:58:39.213Z,19.33
2019-01-24T21:01:10.794Z,19.97
2019-01-24T21:03:42.231Z,20.27
2019-01-24T21:06:13.350Z,20.90
2019-01-24T21:08:45.368Z,18.90
2019-01-24T21:11:16.894Z,20.73
2019-01-24T21:13:47.963Z,20.53
2019-01-24T21:16:19.415Z,20.53
2019-01-24T21:18:50.867Z,20.43
2019-01-24T21:21:21.977Z,20.77
2019-01-24T21:23:53.915Z,19.30
2019-01-24T21:26:25.053Z,20.93
2019-01-24T21:28:56.085Z,19.80
2019-01-24T21:31:27.030Z,20.43
2019-01-24T21:33:58.772Z,20.23
2019-01-24T21:36:29.880Z,22.00
2019-01-24T21:39:04.367Z,21.17
2019-01-24T21:41:35.745Z,20.93
2019-01-24T21:44:08.308Z,20.35
2019-01-24T21:46:39.435Z,19.67
2019-01-24T21:49:10.325Z,21.77
2019-01-24T21:51:41.677Z,21.73
2019-01-24T21:54:14.820Z,19.80
2019-01-24T21:56:49.435Z,20.40
2019-01-24T21:59:20.682Z,20.62
2019-01-24T22:01:52.244Z,19.77
2019-01-24T22:04:22.955Z,20.80
2019-01-24T22:06:53.710Z,20.55
2019-01-24T22:09:29.155Z,20.95
2019-01-24T22:11:57.315Z,21.30
2019-01-24T22:14:28.430Z,19.40
2019-01-24T22:16:59.913Z,19.25
2019-01-24T22:19:31.637Z,20.83
2019-01-24T22:22:03.094Z,20.87
2019-01-24T22:24:34.576Z,19.53
2019-01-24T22:27:05.659Z,20.53
2019-01-24T22:29:37.084Z,21.17
2019-01-24T22:32:08.310Z,20.93
2019-01-24T22:34:40.155Z,21.07
2019-01-24T22:37:11.285Z,20.77
2019-01-24T22:39:43.079Z,20.20
2019-01-24T22:42:14.189Z,19.43
2019-01-24T22:44:45.183Z,20.52
2019-01-24T22:47:15.960Z,22.20
2019-01-24T22:49:46.777Z,20.55
2019-01-24T22:52:17.452Z,20.30
2019-01-24T22:54:48.698Z,21.57
2019-01-24T22:57:19.795Z,21.27
2019-01-24T22:59:50.839Z,21.83
2019-01-24T23:02:27.416Z,21.67
2019-01-24T23:04:58.525Z,22.47
2019-01-24T23:07:29.599Z,22.13
2019-01-24T23:10:01.767Z,20.70
2019-01-24T23:12:33.276Z,20.60
2019-01-24T23:15:04.715Z,21.93
2019-01-24T23:17:36.099Z,22.48
2019-01-24T23:20:08.771Z,21.90
2019-01-24T23:22:39.823Z,22.30
2019-01-24T23:25:10.645Z,22.07
2019-01-24T23:27:41.390Z,20.70
2019-01-24T23:30:12.517Z,21.50
2019-01-24T23:32:43.624Z,23.80
2019-01-24T23:35:15.060Z,21.73
2019-01-24T23:37:52.348Z,22.52
2019-01-24T23:40:19.604Z,21.80
2019-01-24T23:42:50.641Z,22.00
2019-01-24T23:45:21.745Z,21.33
2019-01-24T23:47:52.829Z,21.83
2019-01-24T23:50:24.169Z,22.07
2019-01-24T23:52:55.369Z,22.47
2019-01-24T23:55:26.833Z,22.35
2019-01-24T23:57:58.165Z,20.65
